Breckenridge, CO

2:23 AM MDT on September 26, 2016 (GMT -0600)
Copper Mountain

Weather History for KCCU - October, 2012

Change the Weather History Date:

Friday, October 5, 2012

  Actual Average Record
Temperature  
Mean Temperature 38 °F -  
Max Temperature 42 °F - 59 °F (2015)
Min Temperature 33 °F - 15 °F (2005)
Degree Days  
Heating Degree Days 28    
Month to date heating degree days  
Cooling Degree Days 0    
Month to date cooling degree days  
Moisture  
Dew Point 12 °F    
Average Humidity 41    
Maximum Humidity 87    
Minimum Humidity 19    
Precipitation  
Precipitation 0.01 in - 0.10 in (2015)
Sea Level Pressure  
Sea Level Pressure 30.25 in    
Wind  
Wind Speed 22 mph (WSW)    
Max Wind Speed 46 mph    
Max Gust Speed 60 mph    
Visibility 9 miles    
Events Snow , Thunderstorm    
T = Trace of Precipitation, MM = Missing Value Source: NWS Daily Summary

Daily Weather History Graph

Daily Weather History Graph

Search for Another Location

Airport or City:

Trip Planner

Search our weather history database for the weather conditions in past years. The results will help you decide how hot, cold, wet, or windy it might be!

Date:

Astronomy

Oct. 05, 2012 Rise Set
Actual Time 7:05 AM MDT 6:39 PM MDT
Civil Twilight 6:38 AM MDT 7:06 PM MDT
Nautical Twilight 6:07 AM MDT 7:37 PM MDT
Astronomical Twilight 5:35 AM MDT 8:09 PM MDT
Moon 10:07 PM MDT (10/5) 12:13 PM MDT (10/5)
Length of Visible Light 12h 28m
Length of Day
11h 34m
Waning Gibbous, 73% of the Moon is Illuminated
Oct 5
Waning Gibbous
Oct 8
Last Quarter
Oct 15
New
Oct 21
First Quarter
Oct 29
Full

Hourly Weather History & Observations

Time (MDT) Temp. Windchill Dew Point Humidity Pressure Visibility Wind Dir Wind Speed Gust Speed Precip Events Conditions
12:15 AM 35.6 °F 26.2 °F 30.2 °F 81% 30.32 in 10.0 mi SSW 15.0 mph 27.6 mph N/A   Overcast
12:35 AM 35.6 °F 26.6 °F 30.2 °F 81% 30.31 in 10.0 mi SSW 13.8 mph 23.0 mph N/A Thunderstorm Overcast
12:55 AM 37.4 °F 29.3 °F 30.2 °F 75% 30.28 in 10.0 mi SW 12.7 mph 20.7 mph N/A   Overcast
1:15 AM 35.6 °F 27.5 °F 30.2 °F 81% 30.28 in 10.0 mi SSW 11.5 mph 25.3 mph N/A   Overcast
1:35 AM 35.6 °F 24.5 °F 30.2 °F 81% 30.28 in 7.0 mi South 20.7 mph 27.6 mph N/A Snow Light Snow
1:55 AM 35.6 °F 24.5 °F 30.2 °F 81% 30.28 in 1.0 mi SW 20.7 mph 46.0 mph N/A Snow Snow
2:15 AM 35.6 °F 23.7 °F 30.2 °F 81% 30.25 in 10.0 mi South 24.2 mph 33.4 mph N/A   Overcast
2:35 AM 35.6 °F 23.7 °F 30.2 °F 81% 30.24 in 10.0 mi South 24.2 mph 33.4 mph N/A   Overcast
2:55 AM 35.6 °F 24.8 °F 30.2 °F 81% 30.25 in 2.5 mi WSW 19.6 mph 25.3 mph N/A Snow Light Snow
3:15 AM 33.8 °F 24.8 °F 30.2 °F 87% 30.25 in 0.8 mi SW 12.7 mph 33.4 mph N/A Snow Snow
3:35 AM 35.6 °F 24.8 °F 30.2 °F 81% 30.23 in 7.0 mi SW 19.6 mph 29.9 mph N/A Snow Light Snow
3:55 AM 35.6 °F 25.2 °F 28.4 °F 75% 30.23 in 5.0 mi SW 18.4 mph 43.7 mph N/A Snow Light Snow
4:15 AM 37.4 °F 25.6 °F 30.2 °F 75% 30.22 in 10.0 mi WSW 26.5 mph 41.4 mph N/A   Overcast
4:35 AM 33.8 °F 22.2 °F 30.2 °F 87% 30.22 in 0.2 mi West 20.7 mph 26.5 mph N/A Snow Snow
4:55 AM 33.8 °F 22.2 °F 30.2 °F 87% 30.23 in 0.2 mi West 20.7 mph 27.6 mph N/A Snow Heavy Snow
5:15 AM 33.8 °F 20.5 °F 30.2 °F 87% 30.24 in 0.2 mi West 27.6 mph 42.6 mph N/A Snow Heavy Snow
5:35 AM 33.8 °F 19.6 °F 30.2 °F 87% 30.23 in 1.2 mi West 32.2 mph 46.0 mph N/A Snow Light Snow
5:55 AM 33.8 °F 18.5 °F 23.0 °F 65% 30.21 in 0.5 mi WSW 39.1 mph 58.7 mph N/A Snow Light Snow
6:15 AM 35.6 °F 23.7 °F 19.4 °F 52% 30.23 in 1.8 mi WSW 24.2 mph 49.5 mph N/A Snow Light Snow
6:35 AM 35.6 °F 20.0 °F 17.6 °F 48% 30.20 in 10.0 mi West 46.0 mph 59.8 mph N/A   Overcast
6:55 AM 35.6 °F 20.8 °F 10.4 °F 35% 30.24 in 5.0 mi West 40.3 mph 51.8 mph N/A   Haze
7:15 AM 33.8 °F 19.0 °F 10.4 °F 38% 30.24 in 10.0 mi West 35.7 mph 46.0 mph N/A   Mostly Cloudy
7:35 AM 33.8 °F 18.5 °F 8.6 °F 35% 30.24 in 10.0 mi West 39.1 mph 54.1 mph N/A   Mostly Cloudy
7:55 AM 33.8 °F 18.5 °F 6.8 °F 32% 30.23 in 10.0 mi West 39.1 mph 59.8 mph N/A   Scattered Clouds
8:15 AM 33.8 °F 17.5 °F 8.6 °F 35% 30.23 in 10.0 mi West 46.0 mph 55.2 mph N/A   Scattered Clouds
8:35 AM 33.8 °F 19.2 °F 6.8 °F 32% 30.25 in 10.0 mi West 34.5 mph 50.6 mph N/A   Clear
8:55 AM 33.8 °F 18.8 °F 5.0 °F 30% 30.25 in 10.0 mi West 36.8 mph 50.6 mph N/A   Clear
9:15 AM 33.8 °F 21.0 °F 5.0 °F 30% 30.27 in 10.0 mi West 25.3 mph 41.4 mph N/A   Clear
9:35 AM 33.8 °F 21.9 °F 5.0 °F 30% 30.28 in 10.0 mi West 21.9 mph 34.5 mph N/A   Clear
9:55 AM 35.6 °F 24.5 °F 5.0 °F 28% 30.28 in 10.0 mi West 20.7 mph 41.4 mph N/A   Clear
10:15 AM 35.6 °F 23.7 °F 5.0 °F 28% 30.28 in 10.0 mi WSW 24.2 mph 46.0 mph N/A   Scattered Clouds
10:35 AM 35.6 °F 22.7 °F 5.0 °F 28% 30.27 in 10.0 mi West 28.8 mph 44.9 mph N/A   Mostly Cloudy
10:55 AM 37.4 °F 23.5 °F 5.0 °F 26% 30.26 in 10.0 mi WSW 39.1 mph 47.2 mph 0.01 in   Mostly Cloudy
11:15 AM 37.4 °F 27.5 °F 5.0 °F 26% 30.28 in 10.0 mi West 18.4 mph 41.4 mph N/A   Scattered Clouds
11:35 AM 37.4 °F 24.0 °F 3.2 °F 24% 30.26 in 10.0 mi West 35.7 mph 47.2 mph N/A   Scattered Clouds
11:55 AM 37.4 °F 25.9 °F 1.4 °F 22% 30.28 in 10.0 mi West 25.3 mph 39.1 mph N/A   Clear
12:35 PM 37.4 °F 26.4 °F 6.8 °F 28% 30.28 in 10.0 mi West 23.0 mph 35.7 mph N/A   Clear
12:55 PM 37.4 °F 26.1 °F 5.0 °F 26% 30.27 in 10.0 mi West 24.2 mph 32.2 mph N/A   Clear
1:15 PM 39.2 °F 29.0 °F 6.8 °F 26% 30.27 in 10.0 mi West 21.9 mph 35.7 mph N/A   Scattered Clouds
1:35 PM 41.0 °F 30.9 °F 5.0 °F 23% 30.26 in 10.0 mi West 24.2 mph 32.2 mph N/A   Scattered Clouds
1:55 PM 41.0 °F 30.9 °F 5.0 °F 23% 30.26 in 10.0 mi West 24.2 mph 34.5 mph N/A   Clear
2:15 PM 41.0 °F 32.2 °F 3.2 °F 21% 30.26 in 10.0 mi WSW 18.4 mph 40.3 mph N/A   Clear
2:35 PM 42.8 °F 34.3 °F 5.0 °F 21% 30.26 in 10.0 mi WSW 19.6 mph 38.0 mph N/A   Scattered Clouds
2:55 PM 42.8 °F 32.7 °F 3.2 °F 19% 30.25 in 10.0 mi West 27.6 mph 35.7 mph N/A   Mostly Cloudy
3:15 PM 41.0 °F 30.7 °F 5.0 °F 23% 30.25 in 10.0 mi West 25.3 mph 31.1 mph N/A   Mostly Cloudy
3:35 PM 39.2 °F 29.0 °F 3.2 °F 22% 30.25 in 10.0 mi West 21.9 mph 35.7 mph N/A   Scattered Clouds
3:55 PM 39.2 °F 30.5 °F 3.2 °F 22% 30.26 in 10.0 mi West 16.1 mph 32.2 mph N/A   Clear
4:15 PM 41.0 °F 31.9 °F 3.2 °F 21% 30.25 in 10.0 mi West 19.6 mph 25.3 mph N/A   Clear
4:35 PM 37.4 °F 25.2 °F 1.4 °F 22% 30.25 in 10.0 mi West 28.8 mph 38.0 mph N/A   Clear
4:55 PM 37.4 °F 26.4 °F 1.4 °F 22% 30.25 in 10.0 mi West 23.0 mph 32.2 mph N/A   Clear
5:15 PM 37.4 °F 26.4 °F 3.2 °F 24% 30.25 in 10.0 mi West 23.0 mph 27.6 mph N/A   Clear
5:35 PM 37.4 °F 26.9 °F 3.2 °F 24% 30.25 in 10.0 mi West 20.7 mph 25.3 mph N/A   Mostly Cloudy
5:55 PM 37.4 °F 29.3 °F 5.0 °F 26% 30.25 in 10.0 mi West 12.7 mph 19.6 mph N/A   Overcast
6:15 PM 37.4 °F 28.5 °F 5.0 °F 26% 30.25 in 10.0 mi West 15.0 mph - N/A   Overcast
6:35 PM 37.4 °F 26.6 °F 3.2 °F 24% 30.25 in 10.0 mi West 21.9 mph 27.6 mph N/A   Mostly Cloudy
6:55 PM 37.4 °F 29.3 °F 5.0 °F 26% 30.25 in 10.0 mi WSW 12.7 mph 19.6 mph N/A   Mostly Cloudy
7:15 PM 37.4 °F 27.2 °F 5.0 °F 26% 30.24 in 10.0 mi WSW 19.6 mph 26.5 mph N/A   Mostly Cloudy
7:35 PM 37.4 °F 28.2 °F 5.0 °F 26% 30.25 in 10.0 mi West 16.1 mph 29.9 mph N/A   Overcast
7:55 PM 35.6 °F 27.1 °F 6.8 °F 30% 30.26 in 10.0 mi West 12.7 mph 17.3 mph N/A   Overcast
8:15 PM 37.4 °F 28.9 °F 6.8 °F 28% 30.25 in 10.0 mi WSW 13.8 mph 23.0 mph N/A   Overcast
8:35 PM 37.4 °F 28.9 °F 5.0 °F 26% 30.26 in 10.0 mi WSW 13.8 mph 24.2 mph N/A   Overcast
8:55 PM 37.4 °F 27.5 °F 5.0 °F 26% 30.25 in 10.0 mi WSW 18.4 mph 29.9 mph N/A   Overcast
9:35 PM 37.4 °F 28.9 °F 5.0 °F 26% 30.24 in 10.0 mi WSW 13.8 mph 27.6 mph N/A   Overcast
9:55 PM 37.4 °F 28.9 °F 5.0 °F 26% 30.24 in 10.0 mi SW 13.8 mph 23.0 mph N/A   Overcast
10:15 PM 37.4 °F 28.2 °F 5.0 °F 26% 30.23 in 10.0 mi SW 16.1 mph 32.2 mph N/A   Overcast
10:35 PM 35.6 °F 24.0 °F 3.2 °F 26% 30.22 in 10.0 mi WSW 23.0 mph 28.8 mph N/A   Overcast
10:55 PM 33.8 °F 23.2 °F 8.6 °F 35% 30.22 in 10.0 mi West 17.3 mph 32.2 mph N/A   Overcast
11:15 PM 33.8 °F 22.5 °F 8.6 °F 35% 30.22 in 10.0 mi West 19.6 mph - N/A   Overcast
11:35 PM 33.8 °F 20.5 °F 8.6 °F 35% 30.21 in 10.0 mi West 27.6 mph 34.5 mph N/A   Mostly Cloudy
11:55 PM 33.8 °F 20.1 °F 5.0 °F 30% 30.21 in 10.0 mi West 29.9 mph 39.1 mph N/A   Overcast